createdAt,value
2018-12-15T00:03:48.119Z,81.03
2018-12-15T00:08:54.336Z,75.10
2018-12-15T00:13:58.693Z,74.20
2018-12-15T00:19:02.998Z,75.47
2018-12-15T00:24:07.486Z,79.13
2018-12-15T00:29:11.679Z,70.07
2018-12-15T00:34:15.967Z,70.07
2018-12-15T00:39:20.179Z,74.30
2018-12-15T00:44:24.350Z,74.03
2018-12-15T00:49:28.623Z,75.20
2018-12-15T00:54:32.781Z,75.63
2018-12-15T00:59:37.780Z,72.20
2018-12-15T01:04:42.156Z,78.07
2018-12-15T01:09:46.548Z,73.17
2018-12-15T01:14:50.748Z,66.47
2018-12-15T01:19:55.027Z,73.27
2018-12-15T01:24:59.437Z,73.00
2018-12-15T01:30:03.884Z,82.27
2018-12-15T01:35:08.442Z,80.10
2018-12-15T01:40:12.668Z,75.23
2018-12-15T01:45:16.922Z,80.73
2018-12-15T01:50:21.368Z,69.63
2018-12-15T01:55:26.096Z,74.37
2018-12-15T02:00:30.361Z,75.53
2018-12-15T02:05:34.554Z,77.23
2018-12-15T02:10:38.793Z,77.80
2018-12-15T02:15:43.093Z,72.97
2018-12-15T02:20:47.251Z,79.40
2018-12-15T02:25:51.476Z,72.60
2018-12-15T02:30:55.668Z,77.07
2018-12-15T02:35:59.926Z,73.33
2018-12-15T02:41:04.292Z,84.07
2018-12-15T02:46:08.512Z,81.37
2018-12-15T02:51:12.637Z,82.10
2018-12-15T02:56:16.954Z,77.37
2018-12-15T03:01:21.127Z,75.00
2018-12-15T03:06:25.273Z,77.03
2018-12-15T03:11:29.593Z,79.27
2018-12-15T03:16:33.953Z,85.50
2018-12-15T03:21:39.557Z,95.43
2018-12-15T03:26:43.993Z,85.57
2018-12-15T03:31:48.376Z,80.03
2018-12-15T03:36:53.004Z,80.57
2018-12-15T03:41:58.274Z,83.00
2018-12-15T03:47:02.581Z,89.57
2018-12-15T03:52:06.800Z,87.07
2018-12-15T03:57:11.070Z,85.10
2018-12-15T04:02:15.328Z,84.57
2018-12-15T04:07:19.528Z,82.83
2018-12-15T04:12:24.481Z,88.43
2018-12-15T04:17:28.706Z,83.83
2018-12-15T04:22:32.928Z,82.63
2018-12-15T04:27:37.068Z,87.53
2018-12-15T04:32:45.315Z,84.77
2018-12-15T04:37:49.977Z,85.87
2018-12-15T04:42:54.176Z,87.23
2018-12-15T04:47:58.438Z,83.50
2018-12-15T04:53:02.635Z,86.50
2018-12-15T04:58:07.371Z,78.37
2018-12-15T05:03:14.322Z,82.87
2018-12-15T05:08:18.624Z,75.60
2018-12-15T05:13:22.854Z,79.73
2018-12-15T05:18:27.184Z,81.23
2018-12-15T05:23:32.181Z,78.13
2018-12-15T05:28:36.475Z,80.93
2018-12-15T05:33:40.828Z,82.20
2018-12-15T05:38:45.501Z,80.33
2018-12-15T05:43:49.882Z,83.47
2018-12-15T05:48:54.197Z,84.37
2018-12-15T05:53:58.609Z,81.67
2018-12-15T05:59:02.987Z,75.97
2018-12-15T06:04:07.213Z,83.07
2018-12-15T06:09:11.367Z,72.27
2018-12-15T06:14:16.227Z,84.23
2018-12-15T06:19:23.499Z,78.43
2018-12-15T06:24:29.712Z,75.63
2018-12-15T06:29:34.077Z,76.70
2018-12-15T06:34:39.638Z,74.50
2018-12-15T06:39:43.839Z,72.33
2018-12-15T06:44:48.250Z,73.17
2018-12-15T06:49:52.451Z,68.97
2018-12-15T06:54:56.645Z,71.43
2018-12-15T07:00:00.789Z,74.97
2018-12-15T07:05:05.274Z,70.50
2018-12-15T07:10:09.500Z,77.67
2018-12-15T07:15:13.890Z,77.03
2018-12-15T07:20:18.098Z,67.97
2018-12-15T07:25:22.318Z,69.57
2018-12-15T07:30:27.066Z,72.53
2018-12-15T07:35:31.194Z,69.37
2018-12-15T07:40:35.351Z,73.47
2018-12-15T07:45:39.586Z,70.60
2018-12-15T07:50:43.748Z,75.33
2018-12-15T07:55:48.300Z,71.33
2018-12-15T08:00:52.444Z,69.20
2018-12-15T08:05:56.696Z,70.67
2018-12-15T08:11:06.150Z,62.33
2018-12-15T08:16:10.422Z,66.17
2018-12-15T08:21:14.774Z,65.70
2018-12-15T08:26:19.071Z,64.17
2018-12-15T08:31:25.390Z,70.53
2018-12-15T08:36:29.733Z,62.93
2018-12-15T08:41:33.982Z,60.63
2018-12-15T08:46:38.224Z,67.93
2018-12-15T08:51:42.579Z,66.97
2018-12-15T08:56:46.965Z,59.90
2018-12-15T09:01:51.554Z,59.77
2018-12-15T09:06:55.870Z,62.10
2018-12-15T09:12:00.103Z,54.47
2018-12-15T09:17:04.555Z,53.73
2018-12-15T09:22:11.405Z,52.83
2018-12-15T09:27:15.358Z,61.87
2018-12-15T09:32:19.783Z,62.77
2018-12-15T09:37:24.918Z,57.93
2018-12-15T09:42:30.196Z,59.20
2018-12-15T09:47:34.941Z,60.87
2018-12-15T09:52:39.172Z,64.43
2018-12-15T09:57:44.676Z,56.70
2018-12-15T10:02:49.509Z,57.50
2018-12-15T10:07:54.191Z,62.10
2018-12-15T10:12:58.577Z,58.90
2018-12-15T10:18:03.167Z,59.73
2018-12-15T10:23:12.033Z,60.80
2018-12-15T10:28:19.124Z,62.10
2018-12-15T10:33:23.572Z,59.83
2018-12-15T10:38:28.981Z,59.93
2018-12-15T10:43:34.687Z,55.70
2018-12-15T10:48:41.668Z,54.03
2018-12-15T10:53:49.379Z,57.17
2018-12-15T10:58:54.389Z,59.87
2018-12-15T11:04:00.893Z,62.43
2018-12-15T11:09:08.217Z,58.50
2018-12-15T11:14:14.885Z,58.50
2018-12-15T11:19:38.075Z,71.93
2018-12-15T11:24:44.111Z,55.63
2018-12-15T11:29:49.080Z,59.70
2018-12-15T11:34:53.439Z,58.80
2018-12-15T11:39:57.773Z,51.17
2018-12-15T11:45:02.627Z,60.20
2018-12-15T11:50:08.519Z,56.93
2018-12-15T11:55:13.319Z,60.13
2018-12-15T12:00:18.217Z,59.43
2018-12-15T12:05:22.957Z,61.10
2018-12-15T12:10:27.263Z,62.40
2018-12-15T12:15:31.824Z,56.40
2018-12-15T12:20:36.289Z,55.83
2018-12-15T12:25:40.923Z,59.40
2018-12-15T12:30:49.028Z,60.23
2018-12-15T12:36:04.381Z,57.40
2018-12-15T12:41:08.843Z,57.03
2018-12-15T12:46:15.268Z,51.47
2018-12-15T12:51:19.511Z,60.33
2018-12-15T12:56:23.941Z,55.93
2018-12-15T13:01:28.503Z,56.83
2018-12-15T13:06:32.871Z,64.10
2018-12-15T13:11:37.178Z,58.30
2018-12-15T13:16:41.945Z,53.43
2018-12-15T13:21:46.225Z,54.93
2018-12-15T13:26:50.583Z,56.03
2018-12-15T13:31:55.267Z,57.93
2018-12-15T13:37:00.091Z,58.80
2018-12-15T13:42:05.513Z,63.50
2018-12-15T13:47:09.971Z,58.23
2018-12-15T13:52:15.423Z,54.47
2018-12-15T13:57:20.049Z,57.40
2018-12-15T14:02:24.507Z,61.13
2018-12-15T14:07:29.007Z,63.13
2018-12-15T14:12:33.306Z,67.87
2018-12-15T14:17:37.945Z,58.60
2018-12-15T14:22:42.375Z,59.13
2018-12-15T14:27:46.596Z,60.57
2018-12-15T14:32:51.022Z,71.47
2018-12-15T14:37:55.351Z,64.33
2018-12-15T14:43:00.428Z,71.20
2018-12-15T14:48:04.761Z,64.67
2018-12-15T14:53:09.129Z,70.73
2018-12-15T14:58:13.441Z,68.90
2018-12-15T15:03:19.227Z,75.67
2018-12-15T15:08:24.451Z,70.67
2018-12-15T15:13:34.287Z,78.20
2018-12-15T15:18:39.911Z,74.47
2018-12-15T15:23:44.258Z,74.93
2018-12-15T15:28:48.590Z,67.87
2018-12-15T15:33:52.917Z,64.03
2018-12-15T15:38:58.215Z,71.00
2018-12-15T15:44:02.713Z,71.60
2018-12-15T15:49:07.620Z,69.03
2018-12-15T15:54:12.014Z,66.57
2018-12-15T15:59:16.234Z,65.70
2018-12-15T16:04:20.456Z,62.53
2018-12-15T16:09:24.896Z,66.37
2018-12-15T16:14:30.352Z,66.87
2018-12-15T16:19:35.686Z,67.23
2018-12-15T16:24:40.493Z,68.63
2018-12-15T16:29:44.788Z,65.93
2018-12-15T16:34:49.018Z,68.20
2018-12-15T16:39:53.461Z,68.33
2018-12-15T16:44:57.853Z,65.37
2018-12-15T16:50:02.374Z,64.87
2018-12-15T16:55:07.065Z,67.60
2018-12-15T17:00:14.251Z,63.33
2018-12-15T17:05:18.780Z,67.60
2018-12-15T17:10:23.335Z,71.30
2018-12-15T17:15:28.090Z,72.23
2018-12-15T17:20:33.266Z,66.33
2018-12-15T17:25:37.586Z,68.07
2018-12-15T17:30:41.842Z,68.27
2018-12-15T17:35:48.999Z,71.77
2018-12-15T17:40:57.730Z,66.47
2018-12-15T17:46:12.555Z,70.27
2018-12-15T17:51:18.651Z,70.07
2018-12-15T17:56:23.858Z,69.10
2018-12-15T18:01:28.190Z,67.53
2018-12-15T18:06:33.353Z,65.60
2018-12-15T18:11:38.355Z,68.73
2018-12-15T18:16:43.694Z,70.80
2018-12-15T18:21:48.079Z,69.73
2018-12-15T18:26:52.675Z,69.10
2018-12-15T18:31:56.982Z,66.97
2018-12-15T18:37:01.618Z,69.77
2018-12-15T18:42:10.891Z,70.00
2018-12-15T18:47:12.618Z,74.83
2018-12-15T18:52:17.224Z,75.03
2018-12-15T18:57:22.631Z,72.83
2018-12-15T19:02:32.937Z,71.40
2018-12-15T19:07:37.425Z,73.23
2018-12-15T19:12:45.265Z,71.77
2018-12-15T19:17:50.983Z,74.40
2018-12-15T19:22:55.348Z,70.87
2018-12-15T19:28:04.929Z,66.87
2018-12-15T19:33:09.149Z,65.63
2018-12-15T19:38:13.758Z,69.33
2018-12-15T19:48:40.546Z,70.90
2018-12-15T19:53:45.828Z,69.00
2018-12-15T19:58:50.236Z,77.17
2018-12-15T20:03:54.496Z,71.67
2018-12-15T20:09:01.464Z,75.27
2018-12-15T20:14:08.180Z,75.33
2018-12-15T20:19:13.666Z,70.13
2018-12-15T20:24:19.561Z,74.10
2018-12-15T20:29:24.811Z,65.50
2018-12-15T20:34:29.314Z,76.23
2018-12-15T20:39:34.081Z,80.70
2018-12-15T20:44:41.748Z,78.37
2018-12-15T20:49:49.434Z,80.57
2018-12-15T20:54:55.100Z,81.50
2018-12-15T20:59:59.493Z,75.70
2018-12-15T21:10:19.685Z,78.80
2018-12-15T21:15:28.035Z,80.10
2018-12-15T21:20:41.301Z,81.70
2018-12-15T21:25:47.171Z,79.07
2018-12-15T21:30:51.937Z,80.03
2018-12-15T21:35:56.192Z,80.60
2018-12-15T21:41:00.585Z,79.83
2018-12-15T21:46:10.636Z,79.23
2018-12-15T21:51:15.876Z,77.10
2018-12-15T21:56:22.021Z,82.90
2018-12-15T22:01:26.395Z,80.67
2018-12-15T22:06:31.103Z,81.77
2018-12-15T22:11:35.410Z,79.93
2018-12-15T22:16:39.770Z,86.03
2018-12-15T22:21:44.031Z,81.47
2018-12-15T22:26:51.714Z,87.87
2018-12-15T22:32:02.696Z,87.40
2018-12-15T22:37:06.933Z,87.90
2018-12-15T22:42:11.205Z,78.00
2018-12-15T22:47:15.502Z,85.57
2018-12-15T22:52:19.759Z,81.87
2018-12-15T22:57:23.914Z,83.30
2018-12-15T23:02:28.180Z,80.80
2018-12-15T23:07:34.504Z,79.93
2018-12-15T23:12:39.425Z,83.20
2018-12-15T23:17:44.874Z,77.37
2018-12-15T23:22:49.004Z,82.00
2018-12-15T23:27:53.468Z,75.97
2018-12-15T23:32:57.769Z,77.80
2018-12-15T23:38:01.935Z,78.67
2018-12-15T23:43:06.367Z,82.77
2018-12-15T23:48:10.580Z,85.13
2018-12-15T23:53:14.805Z,76.87
2018-12-15T23:58:19.037Z,78.13
